»·PEaware :: N314TW CYQY-CYYR

N314TW :: CYQY-CYYR

FLIGHT INFORMATION

Flight Status: Arrived
Operator: Privately registered:
United States
More flights under this callsign
Pilot: Timothy W. (9658)
Aircraft: ECLIPSE 500
(EA50)
More flights by this aircraft type
Origin: CYQY Sydney
Canada
Destination: CYYR Goose Bay
Canada
More flights between these airports :: More routes between these airports
Route: QY SATIS YYR
File this flight plan on PilotEdge
Remarks:
Altitude:
(Current/Filed)
35,000ft
Speed:
(Current/Filed)
283kts
Departed: 09-Apr-17 01:00 PM
Arrived: 09-Apr-17 02:57 PM
Distance/Time
Traveled:
429nm/1:57
Distance/Time
To Go:
Arrived

Flight Plot

Page will automatically refresh every two minutes.

Flight plan parsing failed; only flown route is shown


Map Options




Map Legend


Flown Route
Filed Route
Departure Airport
Arrival Airport
Navaid (VOR, NDB)
Fix

Horizontal Profiles

Position Reports

Time Latitude Longitude Heading Altitude Ground
Speed
09-Apr-17 12:59 46.167022 -60.042243 90 194ft 15kts
09-Apr-17 13:00 46.166596 -60.041465 226 192ft 34kts
09-Apr-17 13:01 46.143647 -60.073465 225 1215ft 158kts
09-Apr-17 13:02 46.130881 -60.123201 323 3708ft 165kts
09-Apr-17 13:03 46.165332 -60.084491 56 6152ft 188kts
09-Apr-17 13:04 46.192602 -60.019518 56 8425ft 194kts
09-Apr-17 13:05 46.231527 -59.977378 357 10498ft 189kts
09-Apr-17 13:06 46.284688 -59.976136 356 12445ft 195kts
09-Apr-17 13:07 46.339549 -59.975588 355 14231ft 201kts
09-Apr-17 13:08 46.396091 -59.975389 355 15882ft 207kts
09-Apr-17 13:09 46.454496 -59.975349 354 17414ft 214kts
09-Apr-17 13:10 46.514346 -59.975381 354 18831ft 220kts
09-Apr-17 13:11 46.576070 -59.975442 354 20153ft 225kts
09-Apr-17 13:12 46.639460 -59.975518 354 21381ft 231kts
09-Apr-17 13:13 46.704226 -59.975602 354 22522ft 237kts
09-Apr-17 13:14 46.770819 -59.975688 354 23592ft 242kts
09-Apr-17 13:15 46.838700 -59.975778 354 24593ft 247kts
09-Apr-17 13:16 46.907089 -59.975870 354 25523ft 252kts
09-Apr-17 13:17 46.977637 -59.975972 354 26412ft 256kts
09-Apr-17 13:18 47.049359 -59.976071 354 27252ft 260kts
09-Apr-17 13:19 47.122050 -59.976160 354 28029ft 265kts
09-Apr-17 13:20 47.196009 -59.976258 354 28764ft 269kts
09-Apr-17 13:21 47.271278 -59.976357 354 29460ft 273kts
09-Apr-17 13:22 47.347461 -59.976458 354 30115ft 276kts
09-Apr-17 13:23 47.424488 -59.976562 354 30733ft 280kts
09-Apr-17 13:24 47.502784 -59.976667 354 31326ft 284kts
09-Apr-17 13:25 47.581665 -59.976775 354 31874ft 287kts
09-Apr-17 13:26 47.661678 -59.976882 354 32384ft 290kts
09-Apr-17 13:27 47.742578 -59.976989 354 32872ft 293kts
09-Apr-17 13:28 47.823626 -59.977105 355 33333ft 296kts
09-Apr-17 13:29 47.905316 -59.977214 355 33776ft 298kts
09-Apr-17 13:30 47.988592 -59.977329 355 34206ft 301kts
09-Apr-17 13:31 48.072229 -59.977442 355 34620ft 303kts
09-Apr-17 13:32 48.156104 -59.977539 355 34954ft 297kts
09-Apr-17 13:33 48.239492 -59.977677 355 34967ft 306kts
09-Apr-17 13:34 48.324193 -59.977784 355 34966ft 305kts
09-Apr-17 13:35 48.408561 -59.977899 355 34967ft 305kts
09-Apr-17 13:36 48.493205 -59.978020 355 34967ft 305kts
09-Apr-17 13:37 48.577845 -59.978140 355 34963ft 305kts
09-Apr-17 13:38 48.662520 -59.978263 355 34963ft 305kts
09-Apr-17 13:39 48.746952 -59.978382 355 34964ft 305kts
09-Apr-17 13:40 48.831576 -59.978505 355 34964ft 305kts
09-Apr-17 13:41 48.916178 -59.978620 355 34964ft 305kts
09-Apr-17 13:42 49.000412 -59.978748 355 34965ft 303kts
09-Apr-17 13:43 49.084022 -59.978883 355 34965ft 299kts
09-Apr-17 13:44 49.166749 -59.979000 355 34965ft 297kts
09-Apr-17 13:45 49.249274 -59.979111 355 34965ft 297kts
09-Apr-17 13:46 49.331536 -59.979227 355 34966ft 297kts
09-Apr-17 13:47 49.414026 -59.979348 355 34966ft 297kts
09-Apr-17 13:48 49.496605 -59.979469 355 34966ft 297kts
09-Apr-17 13:49 49.579217 -59.979591 355 34964ft 297kts
09-Apr-17 13:50 49.661629 -59.979713 355 34951ft 298kts
09-Apr-17 13:51 49.744393 -59.979836 355 34929ft 298kts
09-Apr-17 13:52 49.826954 -59.979959 355 34922ft 298kts
09-Apr-17 13:53 49.909487 -59.980083 355 34922ft 298kts
09-Apr-17 13:54 49.992091 -59.980207 355 34923ft 298kts
09-Apr-17 13:55 50.074616 -59.980331 355 34923ft 298kts
09-Apr-17 13:56 50.157029 -59.980456 355 34922ft 298kts
09-Apr-17 13:57 50.239695 -59.980581 355 34920ft 298kts
09-Apr-17 13:58 50.322338 -59.980706 355 34920ft 298kts
09-Apr-17 13:59 50.404559 -59.980832 355 34920ft 298kts
09-Apr-17 14:00 50.487026 -59.987343 351 34920ft 296kts
09-Apr-17 14:01 50.568978 -59.995750 351 34918ft 296kts
09-Apr-17 14:02 50.651196 -60.004167 351 34918ft 296kts
09-Apr-17 14:03 50.732737 -60.012530 351 34918ft 296kts
09-Apr-17 14:04 50.814843 -60.020977 351 34918ft 296kts
09-Apr-17 14:05 50.896768 -60.029436 351 34919ft 296kts
09-Apr-17 14:06 50.977764 -60.037856 352 34919ft 289kts
09-Apr-17 14:07 51.057242 -60.046140 352 34918ft 286kts
09-Apr-17 14:08 51.136391 -60.054356 352 34918ft 286kts
09-Apr-17 14:09 51.214914 -60.062564 352 34814ft 289kts
09-Apr-17 14:10 51.293761 -60.070811 352 33616ft 279kts
09-Apr-17 14:11 51.369945 -60.078836 352 32423ft 273kts
09-Apr-17 14:12 51.444836 -60.086751 352 31226ft 267kts
09-Apr-17 14:13 51.517891 -60.094498 352 30031ft 261kts
09-Apr-17 14:14 51.589308 -60.102100 352 28838ft 256kts
09-Apr-17 14:15 51.659227 -60.109565 352 27645ft 250kts
09-Apr-17 14:16 51.727803 -60.116907 352 26449ft 245kts
09-Apr-17 14:17 51.794620 -60.124082 352 25259ft 240kts
09-Apr-17 14:18 51.860277 -60.131153 352 24064ft 235kts
09-Apr-17 14:19 51.924553 -60.138096 352 22869ft 230kts
09-Apr-17 14:20 51.987641 -60.144929 352 21671ft 225kts
09-Apr-17 14:21 52.049070 -60.151601 352 20480ft 220kts
09-Apr-17 14:22 52.109330 -60.158164 352 19288ft 216kts
09-Apr-17 14:23 52.168486 -60.164624 352 18092ft 212kts
09-Apr-17 14:24 52.226313 -60.170956 352 16899ft 207kts
09-Apr-17 14:25 52.282618 -60.177138 352 15714ft 203kts
09-Apr-17 14:26 52.338274 -60.183263 352 14519ft 199kts
09-Apr-17 14:27 52.392993 -60.189300 352 13320ft 195kts
09-Apr-17 14:28 52.446423 -60.195209 352 12126ft 192kts
09-Apr-17 14:29 52.498535 -60.200939 351 10930ft 187kts
09-Apr-17 14:30 52.549536 -60.206653 351 9740ft 184kts
09-Apr-17 14:31 52.599641 -60.212255 351 8683ft 180kts
09-Apr-17 14:32 52.649782 -60.215046 1 8189ft 182kts
09-Apr-17 14:33 52.700068 -60.206602 1 7693ft 181kts
09-Apr-17 14:34 52.747781 -60.186854 39 7204ft 187kts
09-Apr-17 14:35 52.785876 -60.128844 39 6708ft 185kts
09-Apr-17 14:36 52.823654 -60.071547 39 6212ft 184kts
09-Apr-17 14:37 52.861128 -60.014954 39 5718ft 182kts
09-Apr-17 14:38 52.898496 -59.958764 39 5223ft 180kts
09-Apr-17 14:39 52.937210 -59.908742 9 4733ft 175kts
09-Apr-17 14:40 52.984598 -59.891200 10 4392ft 174kts
09-Apr-17 14:41 53.031537 -59.873923 9 4089ft 173kts
09-Apr-17 14:42 53.070570 -59.859618 9 3836ft 172kts
09-Apr-17 14:43 53.124913 -59.839828 9 3483ft 171kts
09-Apr-17 14:44 53.171432 -59.823056 9 3179ft 170kts
09-Apr-17 14:45 53.205792 -59.835793 312 2939ft 163kts
09-Apr-17 14:46 53.243832 -59.897327 314 2639ft 163kts
09-Apr-17 14:47 53.276589 -59.949748 315 2436ft 163kts
09-Apr-17 14:48 53.309295 -60.002131 315 2233ft 163kts
09-Apr-17 14:49 53.341920 -60.054465 315 2036ft 162kts
09-Apr-17 14:50 53.369038 -60.098038 315 1950ft 162kts
09-Apr-17 14:51 53.401824 -60.149849 314 1820ft 162kts
09-Apr-17 14:52 53.418958 -60.202239 233 1800ft 117kts
09-Apr-17 14:53 53.396182 -60.251878 233 1297ft 115kts
09-Apr-17 14:54 53.379650 -60.286728 232 992ft 114kts
09-Apr-17 14:55 53.356725 -60.333919 232 648ft 104kts
09-Apr-17 14:56 53.341376 -60.365113 232 481ft 103kts
09-Apr-17 14:57 53.323506 -60.401648 235 260ft 101kts
09-Apr-17 14:58 53.313054 -60.426325 234 151ft 25kts
09-Apr-17 14:59 53.311119 -60.428158 145 151ft 0kts
09-Apr-17 15:00 53.311046 -60.428074 145 151ft 3kts
09-Apr-17 15:01 53.311913 -60.424292 62 149ft 18kts
09-Apr-17 15:02 53.311527 -60.420565 132 147ft 1kts
09-Apr-17 15:03 53.311365 -60.420542 239 147ft 0kts

Navigation Log

Ident Type
Flight plan parsing failed, navigation log unavailable